Time;durP1;ratioP1;P1;durP2;ratioP2;P2;SDS_P1;SDS_P2;PMS_P1;PMS_P2;Temp;Humidity;BMP_temperature;BMP_pressure;BME280_temperature;BME280_humidity;BME280_pressure;Samples;Min_cycle;Max_cycle;Signal;HPM_P1;HPM_P2
2022/11/22 00:00:44;;;;;;;0.00;0.00;;;;;;;15.37;65.50;99424.69;2095939;28;20059;-66
2022/11/22 00:01:47;;;;;;;0.00;0.00;;;;;;;15.35;65.72;99421.59;2097234;28;20060;-67
2022/11/22 00:02:50;;;;;;;0.00;0.00;;;;;;;15.35;65.42;99410.72;2099418;28;20060;-67
2022/11/22 00:03:52;;;;;;;0.00;0.00;;;;;;;15.35;65.33;99412.69;2098092;28;20049;-68
2022/11/22 00:04:54;;;;;;;0.00;0.00;;;;;;;15.35;65.72;99408.00;2097147;28;20195;-66
2022/11/22 00:05:57;;;;;;;0.00;0.00;;;;;;;15.36;65.67;99406.84;2096459;28;20060;-66
2022/11/22 00:06:59;;;;;;;0.00;0.00;;;;;;;15.35;65.45;99402.56;2097267;28;20071;-66
2022/11/22 00:08:02;;;;;;;0.00;0.00;;;;;;;15.35;65.35;99405.28;2097086;28;20090;-67
2022/11/22 00:09:03;;;;;;;0.00;0.00;;;;;;;15.33;65.38;99399.50;2098883;28;20052;-67
2022/11/22 00:10:08;;;;;;;0.00;0.00;;;;;;;15.34;65.32;99403.75;2097755;28;20040;-68
2022/11/22 00:11:10;;;;;;;0.00;0.00;;;;;;;15.33;65.44;99394.06;2096648;28;20519;-68
2022/11/22 00:12:13;;;;;;;0.00;0.00;;;;;;;15.33;65.55;99402.22;2097214;28;20080;-69
2022/11/22 00:13:16;;;;;;;0.00;0.00;;;;;;;15.33;65.35;99396.78;2097963;28;20052;-69
2022/11/22 00:14:18;;;;;;;0.00;0.00;;;;;;;15.32;65.40;99395.22;2096534;28;20095;-67
2022/11/22 00:15:22;;;;;;;0.00;0.00;;;;;;;15.33;65.23;99391.34;2098506;28;20091;-67
2022/11/22 00:16:24;;;;;;;0.00;0.00;;;;;;;15.30;65.28;99386.69;2096547;28;20060;-66
2022/11/22 00:17:26;;;;;;;0.00;0.00;;;;;;;15.30;65.54;99388.66;2097330;28;20044;-68
2022/11/22 00:18:29;;;;;;;0.00;0.00;;;;;;;15.31;65.16;99393.69;2096411;28;20067;-67
2022/11/22 00:19:32;;;;;;;0.00;0.00;;;;;;;15.30;65.18;99392.13;2097092;28;20059;-68
2022/11/22 00:20:34;;;;;;;0.00;0.00;;;;;;;15.31;65.36;99393.69;2097248;28;20055;-67
2022/11/22 00:21:36;;;;;;;0.00;0.00;;;;;;;15.30;65.37;99383.97;2097781;28;20048;-67
2022/11/22 00:22:38;;;;;;;0.00;0.00;;;;;;;15.29;65.07;99382.44;2097941;28;20075;-67
2022/11/22 00:23:46;;;;;;;0.00;0.00;;;;;;;15.29;65.14;99382.44;2095751;28;20064;-66
2022/11/22 00:24:50;;;;;;;0.00;0.00;;;;;;;15.29;65.23;99385.16;2096943;28;20087;-66
2022/11/22 00:25:52;;;;;;;0.00;0.00;;;;;;;15.27;65.23;99379.34;2095993;28;20060;-68
2022/11/22 00:26:54;;;;;;;0.00;0.00;;;;;;;15.27;65.16;99376.63;2097029;28;20133;-67
2022/11/22 00:27:57;;;;;;;0.00;0.00;;;;;;;15.29;65.07;99373.50;2096071;28;20181;-69
2022/11/22 00:28:59;;;;;;;0.00;0.00;;;;;;;15.28;64.96;99378.19;2098694;28;20059;-67
2022/11/22 00:30:01;;;;;;;0.00;0.00;;;;;;;15.26;64.92;99369.66;2099153;28;20557;-67
2022/11/22 00:31:05;;;;;;;0.00;0.00;;;;;;;15.29;64.99;99373.50;2098304;28;20052;-68
2022/11/22 00:32:07;;;;;;;0.00;0.00;;;;;;;15.27;65.05;99376.63;2098331;28;20052;-67
2022/11/22 00:33:09;;;;;;;0.00;0.00;;;;;;;15.27;65.14;99371.19;2096233;28;20052;-68
2022/11/22 00:34:12;;;;;;;0.00;0.00;;;;;;;15.27;64.52;99365.00;2097693;28;20061;-67
2022/11/22 00:35:14;;;;;;;0.00;0.00;;;;;;;15.26;64.83;99361.50;2098039;28;20087;-66
2022/11/22 00:36:16;;;;;;;0.00;0.00;;;;;;;15.26;65.21;99364.22;2095669;28;20052;-66
2022/11/22 00:37:19;;;;;;;0.00;0.00;;;;;;;15.26;65.07;99366.94;2097996;28;20064;-68
2022/11/22 00:38:21;;;;;;;0.00;0.00;;;;;;;15.26;64.81;99361.50;2096569;28;20435;-67
2022/11/22 00:39:24;;;;;;;0.00;0.00;;;;;;;15.26;64.76;99363.44;2098034;28;20500;-67
2022/11/22 00:40:25;;;;;;;0.00;0.00;;;;;;;15.25;64.70;99357.25;2096327;28;20552;-67
2022/11/22 00:41:28;;;;;;;0.00;0.00;;;;;;;15.25;64.53;99348.31;2097072;28;20553;-67
2022/11/22 00:42:30;;;;;;;0.00;0.00;;;;;;;15.25;64.98;99351.03;2096605;28;20551;-67
2022/11/22 00:43:33;;;;;;;0.03;0.03;;;;;;;15.25;64.44;99346.38;2098431;28;20056;-67
2022/11/22 00:44:34;;;;;;;0.00;0.00;;;;;;;15.24;64.69;99342.09;2099871;28;20048;-67
2022/11/22 00:45:37;;;;;;;0.00;0.00;;;;;;;15.24;64.71;99344.81;2098894;28;20052;-66
2022/11/22 00:46:40;;;;;;;0.00;0.00;;;;;;;15.24;64.60;99344.81;2095976;28;20495;-67
2022/11/22 00:47:43;;;;;;;0.00;0.00;;;;;;;15.23;64.48;99348.72;2095451;28;20055;-66
2022/11/22 00:48:45;;;;;;;0.00;0.00;;;;;;;15.23;64.56;99353.38;2096483;28;20496;-67
2022/11/22 00:49:47;;;;;;;0.00;0.00;;;;;;;15.23;64.53;99348.72;2096635;28;20060;-65
2022/11/22 00:50:50;;;;;;;0.00;0.00;;;;;;;15.23;64.56;99354.16;2098021;28;20126;-66
2022/11/22 00:51:52;;;;;;;0.00;0.00;;;;;;;15.23;64.61;99356.09;2097853;28;20061;-66
2022/11/22 00:52:54;;;;;;;0.00;0.00;;;;;;;15.23;64.36;99356.88;2096833;28;20079;-67
2022/11/22 00:53:57;;;;;;;0.00;0.00;;;;;;;15.23;64.55;99353.38;2097033;28;20113;-66
2022/11/22 00:54:58;;;;;;;0.00;0.00;;;;;;;15.21;64.59;99342.91;2095951;28;20060;-66
2022/11/22 00:56:01;;;;;;;0.00;0.00;;;;;;;15.22;64.54;99341.75;2096102;28;20070;-66
2022/11/22 00:57:03;;;;;;;0.00;0.00;;;;;;;15.21;64.54;99344.84;2102011;28;20081;-66
2022/11/22 00:58:06;;;;;;;0.00;0.00;;;;;;;15.18;64.38;99343.72;2100462;28;20090;-66
2022/11/22 00:59:08;;;;;;;0.00;0.00;;;;;;;15.21;64.85;99344.84;2096947;28;20056;-67
2022/11/22 01:00:11;;;;;;;0.00;0.00;;;;;;;15.18;64.47;99338.28;2097054;28;20067;-67
2022/11/22 01:01:13;;;;;;;0.00;0.00;;;;;;;15.19;64.52;99347.97;2097930;28;21342;-66
2022/11/22 01:02:18;;;;;;;0.00;0.00;;;;;;;15.22;64.40;99346.41;2097401;28;20112;-66
2022/11/22 01:03:19;;;;;;;0.00;0.00;;;;;;;15.20;64.33;99349.53;2097376;28;20080;-67
2022/11/22 01:04:22;;;;;;;0.00;0.00;;;;;;;15.18;64.33;99346.44;2096446;28;20048;-67
2022/11/22 01:05:24;;;;;;;0.00;0.00;;;;;;;15.20;64.35;99344.09;2097923;28;20048;-66
2022/11/22 01:06:27;;;;;;;0.00;0.00;;;;;;;15.19;64.21;99342.53;2096527;28;20052;-67
2022/11/22 01:07:28;;;;;;;0.00;0.00;;;;;;;15.19;64.28;99345.25;2098652;28;20063;-67
2022/11/22 01:08:31;;;;;;;0.00;0.00;;;;;;;15.20;64.38;99344.09;2096695;28;20091;-67
2022/11/22 01:09:33;;;;;;;0.00;0.00;;;;;;;15.21;64.16;99342.13;2098371;28;20817;-67
2022/11/22 01:10:37;;;;;;;0.00;0.00;;;;;;;15.19;64.46;99337.09;2096251;28;20051;-67
2022/11/22 01:11:38;;;;;;;0.00;0.00;;;;;;;15.19;64.20;99337.09;2096604;28;20056;-67
2022/11/22 01:12:41;;;;;;;0.00;0.00;;;;;;;15.19;64.14;99339.81;2095503;28;20049;-66
2022/11/22 01:13:43;;;;;;;0.00;0.00;;;;;;;15.19;64.11;99339.06;2096851;28;20110;-67
2022/11/22 01:14:46;;;;;;;0.00;0.00;;;;;;;15.19;64.51;99333.63;2096540;28;20049;-66
2022/11/22 01:15:48;;;;;;;0.00;0.00;;;;;;;15.19;63.94;99334.38;2096701;28;20107;-65
2022/11/22 01:16:51;;;;;;;0.00;0.00;;;;;;;15.19;64.37;99333.63;2098975;28;20052;-66
2022/11/22 01:17:54;;;;;;;0.00;0.00;;;;;;;15.19;64.33;99331.66;2097321;28;20439;-67
2022/11/22 01:18:57;;;;;;;0.00;0.00;;;;;;;15.19;64.60;99342.53;2097087;28;20060;-67
2022/11/22 01:19:58;;;;;;;0.00;0.00;;;;;;;15.18;64.32;99338.28;2099495;28;20052;-66
2022/11/22 01:21:02;;;;;;;0.00;0.00;;;;;;;15.19;64.15;99342.53;2098165;28;20060;-68
2022/11/22 01:22:03;;;;;;;0.00;0.00;;;;;;;15.18;63.99;99346.44;2095169;28;20531;-67
2022/11/22 01:23:06;;;;;;;0.00;0.00;;;;;;;15.18;64.27;99340.22;2098304;28;20087;-68
2022/11/22 01:24:08;;;;;;;0.00;0.00;;;;;;;15.18;64.47;99343.72;2095615;28;20052;-68
2022/11/22 01:25:11;;;;;;;0.00;0.00;;;;;;;15.18;64.27;99346.44;2097805;28;20397;-67
2022/11/22 01:26:13;;;;;;;0.00;0.00;;;;;;;15.18;64.30;99345.66;2096122;28;20082;-67
2022/11/22 01:27:15;;;;;;;0.00;0.00;;;;;;;15.17;64.36;99344.91;2096401;28;20048;-66
2022/11/22 01:28:18;;;;;;;0.00;0.00;;;;;;;15.17;64.01;99353.06;2098871;28;20051;-66
2022/11/22 01:29:20;;;;;;;0.00;0.00;;;;;;;15.18;64.14;99348.38;2095443;28;20051;-68
2022/11/22 01:30:22;;;;;;;0.00;0.00;;;;;;;15.17;63.78;99353.06;2096850;28;20071;-67
2022/11/22 01:31:25;;;;;;;0.00;0.00;;;;;;;15.18;63.86;99357.31;2094969;28;20063;-66
2022/11/22 01:32:26;;;;;;;0.00;0.00;;;;;;;15.17;63.95;99355.78;2097197;28;20055;-66
2022/11/22 01:33:30;;;;;;;0.00;0.00;;;;;;;15.18;63.94;99357.31;2098669;28;20079;-66
2022/11/22 01:34:33;;;;;;;0.00;0.00;;;;;;;15.17;64.01;99361.22;2095387;28;20056;-66
2022/11/22 01:35:36;;;;;;;0.00;0.00;;;;;;;15.17;63.71;99353.06;2096269;28;20098;-67
2022/11/22 01:36:38;;;;;;;0.00;0.00;;;;;;;15.17;63.57;99361.22;2098507;28;20134;-67
2022/11/22 01:37:41;;;;;;;0.00;0.00;;;;;;;15.17;63.76;99355.00;2097158;28;20062;-66
2022/11/22 01:38:42;;;;;;;0.00;0.00;;;;;;;15.11;63.97;99335.63;2096554;28;20151;-66
2022/11/22 01:39:45;;;;;;;0.00;0.00;;;;;;;15.17;63.86;99344.13;2096746;28;20056;-66
2022/11/22 01:40:47;;;;;;;0.00;0.00;;;;;;;15.16;63.95;99340.63;2096450;28;20060;-67
2022/11/22 01:41:49;;;;;;;0.00;0.00;;;;;;;15.16;63.79;99339.88;2095561;28;20879;-66
2022/11/22 01:42:53;;;;;;;0.00;0.00;;;;;;;15.14;64.00;99329.41;2096465;28;20063;-65
2022/11/22 01:43:56;;;;;;;0.00;0.00;;;;;;;15.14;63.98;99329.41;2096929;28;20059;-66
2022/11/22 01:45:31;;;;;;;0.00;0.00;;;;;;;15.08;63.83;99330.28;2096670;28;20052;-68
2022/11/22 01:46:38;;;;;;;0.00;0.00;;;;;;;15.08;64.19;99333.75;2097977;28;20417;-67
2022/11/22 01:47:40;;;;;;;0.00;0.00;;;;;;;15.10;63.76;99319.75;2096660;28;20728;-67
2022/11/22 01:48:54;;;;;;;0.00;0.00;;;;;;;15.09;63.47;99329.09;2097927;28;20044;-67
2022/11/22 01:50:01;;;;;;;0.00;0.00;;;;;;;15.09;63.60;99327.16;2096480;28;20080;-67
2022/11/22 01:51:19;;;;;;;0.00;0.00;;;;;;;15.05;63.61;99331.84;2097326;28;20052;-67
2022/11/22 01:52:25;;;;;;;0.00;0.00;;;;;;;15.08;63.55;99324.84;2096641;28;20052;-66
2022/11/22 01:53:32;;;;;;;0.00;0.00;;;;;;;15.10;63.42;99327.91;2095725;28;20045;-66
2022/11/22 01:54:39;;;;;;;0.00;0.00;;;;;;;15.09;63.28;99331.81;2095272;28;20583;-66
2022/11/22 01:55:41;;;;;;;0.00;0.00;;;;;;;15.07;63.46;99323.28;2098007;28;20083;-67
2022/11/22 01:56:50;;;;;;;0.00;0.00;;;;;;;15.10;63.41;99322.47;2096044;28;20052;-67
2022/11/22 01:57:52;;;;;;;0.00;0.00;;;;;;;15.08;63.63;99331.03;2095496;28;20131;-67
2022/11/22 01:58:58;;;;;;;0.00;0.00;;;;;;;15.10;63.28;99333.34;2096951;28;20066;-67
2022/11/22 02:00:05;;;;;;;0.00;0.00;;;;;;;15.08;63.00;99331.03;2095764;28;20056;-65
2022/11/22 02:01:08;;;;;;;0.00;0.00;;;;;;;15.08;63.13;99333.75;2098435;28;20044;-67
2022/11/22 02:02:11;;;;;;;0.00;0.00;;;;;;;15.07;63.39;99318.63;2096668;28;20056;-65
2022/11/22 02:03:16;;;;;;;0.00;0.00;;;;;;;15.09;63.02;99326.38;2096390;28;20048;-67
2022/11/22 02:04:21;;;;;;;0.00;0.00;;;;;;;15.10;63.15;99317.03;2097273;28;20051;-66
2022/11/22 02:05:27;;;;;;;0.00;0.00;;;;;;;15.09;63.05;99321.72;2097165;28;20064;-67
2022/11/22 02:06:37;;;;;;;0.00;0.00;;;;;;;15.08;63.22;99319.41;2096553;28;20131;-67
2022/11/22 02:07:46;;;;;;;0.00;0.00;;;;;;;15.07;63.02;99315.13;2095094;28;20056;-68
2022/11/22 02:08:57;;;;;;;0.00;0.00;;;;;;;15.06;63.20;99310.88;2097120;28;20069;-67
2022/11/22 02:09:59;;;;;;;0.00;0.00;;;;;;;15.03;63.16;99312.47;2097115;28;20056;-68
2022/11/22 02:11:03;;;;;;;0.00;0.00;;;;;;;15.07;63.06;99318.63;2098300;28;20095;-68
2022/11/22 02:12:07;;;;;;;0.00;0.00;;;;;;;15.08;63.20;99317.44;2094949;28;20609;-68
2022/11/22 02:13:12;;;;;;;0.00;0.00;;;;;;;15.06;62.99;99319.81;2099290;28;20056;-66
2022/11/22 02:14:17;;;;;;;0.00;0.00;;;;;;;15.07;63.09;99318.63;2096165;28;21087;-68
2022/11/22 02:15:20;;;;;;;0.00;0.00;;;;;;;15.07;62.94;99317.84;2096146;28;20055;-67
2022/11/22 02:16:23;;;;;;;0.00;0.00;;;;;;;15.07;63.09;99324.06;2099169;28;20543;-66
2022/11/22 02:17:26;;;;;;;0.00;0.00;;;;;;;15.08;62.80;99319.41;2099049;28;20052;-67
2022/11/22 02:18:28;;;;;;;0.00;0.00;;;;;;;15.07;62.87;99317.84;2096279;28;20362;-67
2022/11/22 02:19:39;;;;;;;0.00;0.00;;;;;;;15.04;63.09;99319.44;2087169;28;20516;-67
2022/11/22 02:20:42;;;;;;;0.00;0.00;;;;;;;15.03;62.88;99309.75;2088561;28;20052;-67
2022/11/22 02:21:54;;;;;;;0.00;0.00;;;;;;;15.06;63.08;99316.31;2096526;28;20059;-67
2022/11/22 02:23:05;;;;;;;0.00;0.00;;;;;;;15.03;62.88;99315.94;2097138;28;20609;-67
2022/11/22 02:24:15;;;;;;;0.00;0.00;;;;;;;15.04;63.00;99316.72;2098663;28;20066;-66
2022/11/22 02:25:25;;;;;;;0.00;0.00;;;;;;;15.02;62.87;99310.91;2097103;28;20075;-66
2022/11/22 02:26:31;;;;;;;0.00;0.00;;;;;;;15.02;62.55;99311.69;2096327;28;20056;-67
2022/11/22 02:27:33;;;;;;;0.00;0.00;;;;;;;15.01;62.71;99323.72;2099359;28;20060;-66
2022/11/22 02:28:38;;;;;;;0.00;0.00;;;;;;;15.05;62.74;99310.09;2100696;28;20183;-67
2022/11/22 02:29:41;;;;;;;0.00;0.00;;;;;;;15.05;62.67;99320.97;2096174;28;20057;-67
2022/11/22 02:30:44;;;;;;;0.00;0.00;;;;;;;15.03;62.84;99313.22;2096663;28;20059;-67
2022/11/22 02:31:46;;;;;;;0.00;0.00;;;;;;;15.05;62.29;99306.63;2097152;28;20496;-68
2022/11/22 02:32:49;;;;;;;0.00;0.00;;;;;;;15.03;62.30;99305.06;2096691;28;20048;-67
2022/11/22 02:33:50;;;;;;;0.00;0.00;;;;;;;15.05;62.26;99309.34;2096761;28;20534;-66
2022/11/22 02:34:53;;;;;;;0.00;0.00;;;;;;;15.04;62.73;99303.13;2097923;28;20059;-66
2022/11/22 02:35:55;;;;;;;0.00;0.00;;;;;;;15.05;62.64;99298.47;2096294;28;20052;-66
2022/11/22 02:36:58;;;;;;;0.00;0.00;;;;;;;15.05;62.57;99301.94;2096511;28;20052;-66
2022/11/22 02:38:02;;;;;;;0.00;0.00;;;;;;;15.06;62.88;99308.16;2096486;28;20064;-68
2022/11/22 02:39:07;;;;;;;0.00;0.00;;;;;;;15.03;62.49;99307.03;2096212;28;20059;-67
2022/11/22 02:40:13;;;;;;;0.00;0.00;;;;;;;15.04;62.72;99308.56;2097102;28;20087;-67
2022/11/22 02:41:16;;;;;;;0.00;0.00;;;;;;;15.05;62.57;99314.78;2096009;28;20052;-66
2022/11/22 02:42:20;;;;;;;0.00;0.00;;;;;;;15.05;61.75;99312.81;2095228;28;20049;-66
2022/11/22 02:43:26;;;;;;;0.00;0.00;;;;;;;15.05;61.90;99314.78;2095615;28;20052;-66
2022/11/22 02:44:28;;;;;;;0.00;0.00;;;;;;;15.03;61.83;99317.91;2097040;28;20573;-67
2022/11/22 02:45:31;;;;;;;0.00;0.00;;;;;;;15.05;61.90;99314.78;2089020;28;20045;-66
2022/11/22 02:46:33;;;;;;;0.00;0.00;;;;;;;15.04;62.33;99311.28;2089427;28;20080;-68
2022/11/22 02:47:35;;;;;;;0.00;0.00;;;;;;;15.04;62.34;99308.56;2095737;28;20114;-66
2022/11/22 02:48:40;;;;;;;0.00;0.00;;;;;;;15.05;62.02;99312.81;2095304;28;20127;-65
2022/11/22 02:49:42;;;;;;;0.00;0.00;;;;;;;15.03;61.89;99318.66;2096400;28;20504;-66
2022/11/22 02:50:45;;;;;;;0.00;0.00;;;;;;;15.04;61.76;99308.56;2097435;28;20052;-67
2022/11/22 02:51:48;;;;;;;0.00;0.00;;;;;;;15.05;61.81;99320.97;2095474;28;20057;-68
2022/11/22 02:52:50;;;;;;;0.00;0.00;;;;;;;15.03;61.78;99307.03;2099070;28;20051;-66
2022/11/22 02:53:53;;;;;;;0.00;0.00;;;;;;;15.05;61.70;99314.78;2097873;28;20061;-66
2022/11/22 02:54:55;;;;;;;0.00;0.00;;;;;;;15.04;62.08;99314.00;2097952;28;20060;-66
2022/11/22 02:55:58;;;;;;;0.00;0.00;;;;;;;15.04;61.75;99314.00;2098394;28;20594;-67
2022/11/22 02:57:01;;;;;;;0.00;0.00;;;;;;;15.05;61.51;99310.09;2097892;28;20049;-67
2022/11/22 02:58:05;;;;;;;0.00;0.00;;;;;;;15.05;61.58;99307.38;2099454;28;20057;-66
2022/11/22 02:59:07;;;;;;;0.00;0.00;;;;;;;15.03;61.77;99312.47;2098127;28;20044;-67
2022/11/22 03:00:11;;;;;;;0.00;0.00;;;;;;;15.05;61.93;99312.06;2098773;28;20067;-66
2022/11/22 03:01:13;;;;;;;0.00;0.00;;;;;;;15.03;62.02;99309.75;2098123;28;20052;-67
2022/11/22 03:02:16;;;;;;;0.00;0.00;;;;;;;15.03;61.98;99310.50;2099793;28;20123;-67
2022/11/22 03:03:18;;;;;;;0.00;0.00;;;;;;;15.05;61.72;99306.63;2099422;28;20067;-67
2022/11/22 03:04:26;;;;;;;0.00;0.00;;;;;;;15.03;62.06;99310.50;2097354;28;20404;-68
2022/11/22 03:05:28;;;;;;;0.00;0.00;;;;;;;15.01;62.03;99309.38;2097831;28;20087;-68
2022/11/22 03:06:30;;;;;;;0.00;0.00;;;;;;;15.03;61.87;99317.91;2098262;28;20055;-67
2022/11/22 03:07:32;;;;;;;0.00;0.00;;;;;;;15.04;61.57;99319.44;2098189;28;20060;-67
2022/11/22 03:08:35;;;;;;;0.00;0.00;;;;;;;15.03;61.98;99324.09;2098785;28;20067;-68
2022/11/22 03:09:37;;;;;;;0.00;0.00;;;;;;;15.03;61.61;99329.53;2099578;28;20052;-67
2022/11/22 03:10:40;;;;;;;0.00;0.00;;;;;;;15.03;61.59;99326.81;2097574;28;20496;-68
2022/11/22 03:11:42;;;;;;;0.00;0.00;;;;;;;15.03;61.89;99323.34;2101346;28;20135;-68
2022/11/22 03:12:45;;;;;;;0.00;0.00;;;;;;;15.04;61.79;99330.31;2098263;28;20060;-67
2022/11/22 03:13:48;;;;;;;0.00;0.00;;;;;;;15.05;62.01;99328.38;2100663;28;20053;-67
2022/11/22 03:14:50;;;;;;;0.00;0.00;;;;;;;15.03;62.00;99329.53;2098333;28;20955;-67
2022/11/22 03:15:52;;;;;;;0.00;0.00;;;;;;;15.02;62.04;99328.00;2097761;28;20053;-66
2022/11/22 03:16:55;;;;;;;0.00;0.00;;;;;;;15.03;61.52;99340.41;2096031;28;20546;-67
2022/11/22 03:17:57;;;;;;;0.00;0.00;;;;;;;15.03;61.80;99339.66;2097711;28;20053;-67
2022/11/22 03:19:00;;;;;;;0.00;0.00;;;;;;;15.03;61.66;99340.41;2096540;28;20056;-67
2022/11/22 03:20:03;;;;;;;0.00;0.00;;;;;;;15.02;61.78;99341.59;2098309;28;20106;-66
2022/11/22 03:21:07;;;;;;;0.00;0.00;;;;;;;15.01;61.53;99336.56;2097629;28;20056;-68
2022/11/22 03:22:09;;;;;;;0.00;0.00;;;;;;;15.02;61.73;99347.03;2097651;28;20048;-67
2022/11/22 03:23:13;;;;;;;0.00;0.00;;;;;;;15.03;61.21;99350.53;2098310;28;20509;-67
2022/11/22 03:24:15;;;;;;;0.00;0.00;;;;;;;15.03;61.32;99345.09;2096748;28;20083;-67
2022/11/22 03:25:18;;;;;;;0.00;0.00;;;;;;;15.02;61.32;99346.25;2098503;28;20076;-67
2022/11/22 03:26:21;;;;;;;0.00;0.00;;;;;;;15.02;61.37;99344.31;2098313;28;20415;-67
2022/11/22 03:27:24;;;;;;;0.00;0.00;;;;;;;15.02;61.21;99349.75;2100010;28;20051;-67
2022/11/22 03:28:26;;;;;;;0.00;0.00;;;;;;;15.02;61.52;99349.75;2097078;28;20083;-67
2022/11/22 03:29:30;;;;;;;0.00;0.00;;;;;;;15.03;61.08;99351.28;2097898;28;20052;-67
2022/11/22 03:30:32;;;;;;;0.00;0.00;;;;;;;15.01;61.21;99352.88;2097689;28;20048;-67
2022/11/22 03:31:35;;;;;;;0.00;0.00;;;;;;;15.01;61.15;99348.19;2096960;28;20099;-67
2022/11/22 03:32:37;;;;;;;0.00;0.00;;;;;;;15.02;61.01;99348.97;2098322;28;20044;-67
2022/11/22 03:33:40;;;;;;;0.00;0.00;;;;;;;15.02;61.08;99354.41;2097300;28;20060;-67
2022/11/22 03:34:42;;;;;;;0.00;0.00;;;;;;;15.02;61.06;99340.81;2098507;28;20063;-67
2022/11/22 03:35:45;;;;;;;0.00;0.00;;;;;;;15.01;61.42;99344.72;2098494;28;20063;-67
2022/11/22 03:36:47;;;;;;;0.00;0.00;;;;;;;15.01;61.13;99350.16;2098431;28;20052;-67
2022/11/22 03:37:49;;;;;;;0.00;0.00;;;;;;;15.03;61.38;99355.97;2097820;28;20056;-66
2022/11/22 03:38:51;;;;;;;0.00;0.00;;;;;;;15.03;61.26;99347.81;2097427;28;20052;-69
2022/11/22 03:39:54;;;;;;;0.00;0.00;;;;;;;15.02;61.65;99343.53;2097074;28;20064;-67
2022/11/22 03:40:59;;;;;;;0.00;0.00;;;;;;;15.01;61.33;99342.00;2097065;28;20060;-68
2022/11/22 03:42:01;;;;;;;0.00;0.00;;;;;;;15.01;61.19;99342.75;2101474;28;20056;-68
2022/11/22 03:43:03;;;;;;;0.00;0.00;;;;;;;15.01;61.41;99340.03;2099612;28;21540;-67
2022/11/22 03:44:06;;;;;;;0.00;0.00;;;;;;;15.02;61.04;99341.59;2096673;28;20053;-68
2022/11/22 03:45:10;;;;;;;0.00;0.00;;;;;;;15.02;60.81;99343.53;2097122;28;20461;-68
2022/11/22 03:46:14;;;;;;;0.00;0.00;;;;;;;15.01;60.91;99337.31;2095704;28;20056;-68
2022/11/22 03:47:16;;;;;;;0.00;0.00;;;;;;;15.00;60.71;99343.94;2098123;28;20052;-70
2022/11/22 03:48:19;;;;;;;0.00;0.00;;;;;;;15.01;60.87;99333.84;2098583;28;20155;-71
2022/11/22 03:49:21;;;;;;;0.00;0.00;;;;;;;15.00;60.76;99335.00;2097907;28;20508;-69
2022/11/22 03:50:25;;;;;;;0.00;0.00;;;;;;;15.01;60.87;99333.84;2100169;28;20078;-69
2022/11/22 03:51:26;;;;;;;0.00;0.00;;;;;;;15.01;60.76;99331.13;2097047;28;20135;-69
2022/11/22 03:52:29;;;;;;;0.00;0.00;;;;;;;15.01;61.02;99333.84;2100115;28;20619;-70
2022/11/22 03:53:31;;;;;;;0.00;0.00;;;;;;;15.01;60.84;99331.13;2097910;28;20044;-70
2022/11/22 03:54:34;;;;;;;0.00;0.00;;;;;;;15.01;61.06;99331.13;2097812;28;20499;-70
2022/11/22 03:55:36;;;;;;;0.00;0.00;;;;;;;15.01;60.55;99333.84;2098374;28;20052;-70
2022/11/22 03:56:39;;;;;;;0.00;0.00;;;;;;;15.01;60.56;99333.84;2099565;28;20048;-71
2022/11/22 03:57:41;;;;;;;0.00;0.00;;;;;;;15.01;60.77;99331.88;2098961;28;20416;-71
2022/11/22 03:58:43;;;;;;;0.00;0.00;;;;;;;15.01;60.64;99331.13;2097327;28;20049;-71
2022/11/22 03:59:45;;;;;;;0.00;0.00;;;;;;;15.00;60.91;99335.00;2097026;28;20424;-71
2022/11/22 04:00:49;;;;;;;0.00;0.00;;;;;;;15.01;60.74;99328.41;2097606;28;20053;-69
2022/11/22 04:01:51;;;;;;;0.10;0.10;;;;;;;15.01;60.80;99336.56;2097535;28;20060;-70
2022/11/22 04:02:54;;;;;;;0.00;0.00;;;;;;;14.99;60.99;99339.69;2098055;28;20075;-70
2022/11/22 04:03:55;;;;;;;0.00;0.00;;;;;;;15.00;60.67;99335.78;2096567;28;20060;-71
2022/11/22 04:04:58;;;;;;;0.00;0.00;;;;;;;15.00;60.39;99345.88;2096764;28;20048;-71
2022/11/22 04:06:00;;;;;;;0.00;0.00;;;;;;;15.00;60.75;99335.78;2096891;28;20059;-70
2022/11/22 04:07:03;;;;;;;0.00;0.00;;;;;;;15.00;60.89;99335.00;2097362;28;20511;-69
2022/11/22 04:08:04;;;;;;;0.00;0.00;;;;;;;15.00;60.60;99329.56;2099547;28;20155;-70
2022/11/22 04:09:07;;;;;;;0.00;0.00;;;;;;;14.99;60.70;99334.25;2098986;28;20069;-69
2022/11/22 04:10:10;;;;;;;0.00;0.00;;;;;;;15.00;60.44;99324.13;2097303;28;20109;-70
2022/11/22 04:11:13;;;;;;;0.00;0.00;;;;;;;14.99;60.46;99336.97;2096096;28;20423;-70
2022/11/22 04:12:14;;;;;;;0.00;0.00;;;;;;;14.99;60.55;99328.81;2098131;28;20052;-71
2022/11/22 04:13:17;;;;;;;0.00;0.00;;;;;;;15.00;60.44;99333.06;2098000;28;20052;-71
2022/11/22 04:15:39;;;;;;;0.00;0.00;;;;;;;14.93;60.46;99335.88;2096859;28;20080;-71
2022/11/22 04:16:43;;;;;;;0.00;0.00;;;;;;;14.99;60.62;99341.63;2098507;28;20082;-70
2022/11/22 04:17:46;;;;;;;0.00;0.00;;;;;;;14.99;60.49;99333.47;2097494;28;20056;-70
2022/11/22 04:18:48;;;;;;;0.00;0.00;;;;;;;14.97;60.70;99333.88;2097150;28;20077;-69
2022/11/22 04:21:32;;;;;;;0.00;0.00;;;;;;;14.98;60.59;99338.13;2098480;28;20052;-69
2022/11/22 04:21:34;;;;;;;0.00;0.00;;;;;;;14.93;60.69;99335.88;2100459;28;20075;-70
2022/11/22 04:22:35;;;;;;;0.00;0.00;;;;;;;14.93;60.83;99332.38;2098201;28;20067;-70
2022/11/22 04:23:38;;;;;;;0.00;0.00;;;;;;;14.95;60.51;99336.22;2096745;28;20052;-70
2022/11/22 04:26:01;;;;;;;0.00;0.00;;;;;;;14.93;60.41;99340.53;2098881;28;20119;-70
2022/11/22 04:27:04;;;;;;;0.00;0.00;;;;;;;14.95;60.25;99354.50;2097789;28;20056;-70
2022/11/22 04:28:08;;;;;;;0.00;0.00;;;;;;;14.97;60.22;99343.97;2097569;28;20048;-70
2022/11/22 04:29:11;;;;;;;0.00;0.00;;;;;;;14.94;59.93;99333.91;2098473;28;20075;-70
2022/11/22 04:30:12;;;;;;;0.00;0.00;;;;;;;14.95;60.00;99333.50;2097304;28;20126;-70
2022/11/22 04:32:44;;;;;;;0.00;0.00;;;;;;;14.93;60.19;99335.09;2064026;28;20438;-70
2022/11/22 04:33:48;;;;;;;0.00;0.00;;;;;;;14.93;60.60;99329.66;2091112;28;20057;-70
2022/11/22 04:34:49;;;;;;;0.00;0.00;;;;;;;14.93;60.18;99325.00;2095881;28;20075;-70
2022/11/22 04:35:53;;;;;;;0.00;0.00;;;;;;;14.95;60.38;99324.59;2098398;28;20063;-70
2022/11/22 04:36:55;;;;;;;0.00;0.00;;;;;;;14.92;60.53;99331.59;2098336;28;20053;-68
2022/11/22 04:37:57;;;;;;;0.00;0.00;;;;;;;14.94;60.46;99328.47;2098099;28;20060;-70
2022/11/22 04:38:59;;;;;;;0.00;0.00;;;;;;;14.95;60.33;99330.03;2096534;28;20496;-70
2022/11/22 04:40:03;;;;;;;0.00;0.00;;;;;;;14.95;60.55;99335.47;2096493;28;20061;-71
2022/11/22 04:41:04;;;;;;;0.00;0.00;;;;;;;14.94;60.23;99336.63;2097377;28;20048;-71
2022/11/22 04:44:49;;;;;;;0.00;0.00;;;;;;;14.87;60.48;99334.75;2097657;28;20059;-71
2022/11/22 04:45:51;;;;;;;0.00;0.00;;;;;;;14.91;60.07;99334.72;2099808;28;20056;-71
2022/11/22 04:46:54;;;;;;;0.00;0.00;;;;;;;14.93;60.32;99337.81;2096896;28;20067;-71
2022/11/22 04:48:00;;;;;;;0.00;0.00;;;;;;;14.93;60.15;99345.97;2096236;28;20484;-71
2022/11/22 04:49:03;;;;;;;0.00;0.00;;;;;;;14.92;59.97;99345.19;2097875;28;20048;-70
2022/11/22 04:52:52;;;;;;;0.00;0.00;;;;;;;14.93;60.38;99340.53;2097516;28;20095;-71
2022/11/22 04:52:54;;;;;;;0.00;0.00;;;;;;;14.89;60.32;99350.66;2098993;28;20098;-70
2022/11/22 04:53:57;;;;;;;0.00;0.00;;;;;;;14.88;60.28;99347.19;2099972;28;20157;-70
2022/11/22 04:54:59;;;;;;;0.00;0.00;;;;;;;14.91;60.46;99348.31;2097390;28;20049;-70
2022/11/22 04:56:01;;;;;;;0.00;0.00;;;;;;;14.91;60.13;99351.03;2097671;28;20060;-70
2022/11/22 04:57:03;;;;;;;0.00;0.00;;;;;;;14.92;60.35;99349.88;2095885;28;20131;-71
2022/11/22 04:58:06;;;;;;;0.00;0.00;;;;;;;14.92;60.20;99349.88;2098227;28;20056;-70
2022/11/22 04:59:08;;;;;;;0.00;0.00;;;;;;;14.92;60.11;99355.31;2097872;28;20098;-70
2022/11/22 05:00:12;;;;;;;0.00;0.00;;;;;;;14.92;60.45;99361.50;2098294;28;20053;-70
2022/11/22 05:01:14;;;;;;;0.00;0.00;;;;;;;14.93;59.99;99356.84;2098265;28;20436;-70
2022/11/22 05:02:16;;;;;;;0.00;0.00;;;;;;;14.93;60.66;99356.84;2096538;28;20484;-71
2022/11/22 05:03:20;;;;;;;0.00;0.00;;;;;;;14.94;60.34;99361.09;2097695;28;20076;-70
2022/11/22 05:04:22;;;;;;;0.00;0.00;;;;;;;14.93;60.36;99356.84;2097843;28;20044;-71
2022/11/22 05:05:26;;;;;;;0.00;0.00;;;;;;;14.90;60.05;99360.38;2096891;28;20063;-70
2022/11/22 05:06:27;;;;;;;0.00;0.00;;;;;;;14.92;60.24;99361.50;2096567;28;20064;-71
2022/11/22 05:07:30;;;;;;;0.00;0.00;;;;;;;14.93;60.33;99357.63;2095538;28;20056;-71